sensor_id;sensor_type;location;lat;lon;timestamp;pressure;altitude;pressure_sealevel;temperature;humidity
52957;BME280;38819;42.692;23.342;2024-03-22T00:00:10;95350.06;;;8.21;46.30
52957;BME280;38819;42.692;23.342;2024-03-22T00:02:37;95346.84;;;8.14;46.43
52957;BME280;38819;42.692;23.342;2024-03-22T00:05:03;95337.44;;;8.11;46.65
52957;BME280;38819;42.692;23.342;2024-03-22T00:07:29;95341.22;;;8.10;46.56
52957;BME280;38819;42.692;23.342;2024-03-22T00:09:54;95348.19;;;8.11;46.64
52957;BME280;38819;42.692;23.342;2024-03-22T00:12:19;95352.78;;;8.11;46.52
52957;BME280;38819;42.692;23.342;2024-03-22T00:14:45;95342.28;;;8.09;46.37
52957;BME280;38819;42.692;23.342;2024-03-22T00:17:10;95345.22;;;8.13;46.56
52957;BME280;38819;42.692;23.342;2024-03-22T00:19:35;95345.50;;;8.06;47.05
52957;BME280;38819;42.692;23.342;2024-03-22T00:22:01;95335.56;;;8.02;47.20
52957;BME280;38819;42.692;23.342;2024-03-22T00:24:26;95347.16;;;7.97;47.64
52957;BME280;38819;42.692;23.342;2024-03-22T00:26:52;95343.66;;;7.91;48.10
52957;BME280;38819;42.692;23.342;2024-03-22T00:29:17;95348.50;;;7.89;48.21
52957;BME280;38819;42.692;23.342;2024-03-22T00:31:42;95346.09;;;7.93;48.17
52957;BME280;38819;42.692;23.342;2024-03-22T00:34:08;95347.72;;;7.94;48.33
52957;BME280;38819;42.692;23.342;2024-03-22T00:36:33;95351.72;;;7.91;48.33
52957;BME280;38819;42.692;23.342;2024-03-22T00:38:58;95360.59;;;7.87;49.00
52957;BME280;38819;42.692;23.342;2024-03-22T00:41:24;95350.94;;;7.91;48.81
52957;BME280;38819;42.692;23.342;2024-03-22T00:43:49;95354.69;;;7.95;48.73
52957;BME280;38819;42.692;23.342;2024-03-22T00:46:14;95353.09;;;7.84;49.18
52957;BME280;38819;42.692;23.342;2024-03-22T00:48:40;95340.19;;;7.81;49.31
52957;BME280;38819;42.692;23.342;2024-03-22T00:51:05;95339.09;;;7.87;49.33
52957;BME280;38819;42.692;23.342;2024-03-22T00:53:31;95343.94;;;7.85;49.41
52957;BME280;38819;42.692;23.342;2024-03-22T00:55:56;95339.38;;;7.80;49.47
52957;BME280;38819;42.692;23.342;2024-03-22T00:58:25;95352.81;;;7.80;49.40
52957;BME280;38819;42.692;23.342;2024-03-22T01:00:50;95342.06;;;7.75;48.88
52957;BME280;38819;42.692;23.342;2024-03-22T01:03:16;95334.28;;;7.78;48.73
52957;BME280;38819;42.692;23.342;2024-03-22T01:05:41;95342.09;;;7.85;48.39
52957;BME280;38819;42.692;23.342;2024-03-22T01:08:07;95346.38;;;7.76;47.71
52957;BME280;38819;42.692;23.342;2024-03-22T01:10:33;95336.16;;;7.78;47.60
52957;BME280;38819;42.692;23.342;2024-03-22T01:12:59;95349.06;;;7.76;47.67
52957;BME280;38819;42.692;23.342;2024-03-22T01:15:25;95343.69;;;7.71;48.45
52957;BME280;38819;42.692;23.342;2024-03-22T01:17:50;95350.97;;;7.70;48.23
52957;BME280;38819;42.692;23.342;2024-03-22T01:20:17;95346.66;;;7.74;48.35
52957;BME280;38819;42.692;23.342;2024-03-22T01:22:42;95349.34;;;7.74;48.65
52957;BME280;38819;42.692;23.342;2024-03-22T01:25:08;95351.75;;;7.76;48.39
52957;BME280;38819;42.692;23.342;2024-03-22T01:27:34;95351.25;;;7.64;48.49
52957;BME280;38819;42.692;23.342;2024-03-22T01:30:00;95350.69;;;7.67;48.70
52957;BME280;38819;42.692;23.342;2024-03-22T01:32:25;95346.13;;;7.72;48.93
52957;BME280;38819;42.692;23.342;2024-03-22T01:34:50;95353.94;;;7.69;49.25
52957;BME280;38819;42.692;23.342;2024-03-22T01:37:16;95354.19;;;7.67;49.63
52957;BME280;38819;42.692;23.342;2024-03-22T01:39:41;95347.22;;;7.56;49.96
52957;BME280;38819;42.692;23.342;2024-03-22T01:42:06;95346.94;;;7.47;50.47
52957;BME280;38819;42.692;23.342;2024-03-22T01:44:32;95347.22;;;7.46;50.18
52957;BME280;38819;42.692;23.342;2024-03-22T01:46:58;95346.94;;;7.47;49.91
52957;BME280;38819;42.692;23.342;2024-03-22T01:49:25;95343.16;;;7.53;50.16
52957;BME280;38819;42.692;23.342;2024-03-22T01:51:52;95340.50;;;7.38;50.44
52957;BME280;38819;42.692;23.342;2024-03-22T01:54:17;95342.38;;;7.37;50.39
52957;BME280;38819;42.692;23.342;2024-03-22T01:56:44;95352.34;;;7.37;50.52
52957;BME280;38819;42.692;23.342;2024-03-22T01:59:09;95350.72;;;7.36;50.79
52957;BME280;38819;42.692;23.342;2024-03-22T02:01:35;95352.59;;;7.35;50.89
52957;BME280;38819;42.692;23.342;2024-03-22T02:04:01;95343.44;;;7.41;50.99
52957;BME280;38819;42.692;23.342;2024-03-22T02:06:26;95339.16;;;7.35;50.81
52957;BME280;38819;42.692;23.342;2024-03-22T02:08:52;95347.50;;;7.39;51.38
52957;BME280;38819;42.692;23.342;2024-03-22T02:11:17;95342.38;;;7.37;50.88
52957;BME280;38819;42.692;23.342;2024-03-22T02:13:44;95348.81;;;7.31;51.36
52957;BME280;38819;42.692;23.342;2024-03-22T02:16:09;95350.72;;;7.31;51.13
52957;BME280;38819;42.692;23.342;2024-03-22T02:18:53;95349.91;;;7.30;51.37
52957;BME280;38819;42.692;23.342;2024-03-22T02:21:19;95347.75;;;7.22;51.61
52957;BME280;38819;42.692;23.342;2024-03-22T02:23:44;95357.94;;;7.10;51.68
52957;BME280;38819;42.692;23.342;2024-03-22T02:26:10;95366.00;;;7.15;51.21
52957;BME280;38819;42.692;23.342;2024-03-22T02:28:35;95367.63;;;7.16;51.55
52957;BME280;38819;42.692;23.342;2024-03-22T02:31:02;95369.75;;;7.09;52.07
52957;BME280;38819;42.692;23.342;2024-03-22T02:33:28;95362.50;;;7.04;52.33
52957;BME280;38819;42.692;23.342;2024-03-22T02:35:53;95363.31;;;7.10;52.45
52957;BME280;38819;42.692;23.342;2024-03-22T02:38:19;95368.66;;;6.94;52.74
52957;BME280;38819;42.692;23.342;2024-03-22T02:40:45;95370.28;;;6.95;52.67
52957;BME280;38819;42.692;23.342;2024-03-22T02:43:11;95371.59;;;6.93;52.81
52957;BME280;38819;42.692;23.342;2024-03-22T02:45:37;95377.22;;;6.91;52.90
52957;BME280;38819;42.692;23.342;2024-03-22T02:48:02;95376.16;;;6.82;53.04
52957;BME280;38819;42.692;23.342;2024-03-22T02:50:33;95379.38;;;6.84;53.19
52957;BME280;38819;42.692;23.342;2024-03-22T02:52:58;95372.88;;;6.75;52.54
52957;BME280;38819;42.692;23.342;2024-03-22T02:55:23;95383.63;;;6.80;52.82
52957;BME280;38819;42.692;23.342;2024-03-22T02:57:49;95389.88;;;6.91;52.69
52957;BME280;38819;42.692;23.342;2024-03-22T03:00:15;95390.38;;;6.82;52.53
52957;BME280;38819;42.692;23.342;2024-03-22T03:02:40;95399.22;;;6.78;52.62
52957;BME280;38819;42.692;23.342;2024-03-22T03:05:06;95401.91;;;6.78;52.82
52957;BME280;38819;42.692;23.342;2024-03-22T03:07:31;95404.72;;;6.40;53.37
52957;BME280;38819;42.692;23.342;2024-03-22T03:09:57;95405.47;;;6.30;53.28
52957;BME280;38819;42.692;23.342;2024-03-22T03:12:22;95401.31;;;6.07;54.37
52957;BME280;38819;42.692;23.342;2024-03-22T03:14:47;95404.78;;;6.08;55.21
52957;BME280;38819;42.692;23.342;2024-03-22T03:17:13;95412.19;;;5.96;56.00
52957;BME280;38819;42.692;23.342;2024-03-22T03:19:38;95408.00;;;6.05;55.54
52957;BME280;38819;42.692;23.342;2024-03-22T03:22:04;95408.81;;;6.05;54.48
52957;BME280;38819;42.692;23.342;2024-03-22T03:24:29;95407.22;;;6.09;54.26
52957;BME280;38819;42.692;23.342;2024-03-22T03:26:54;95412.84;;;6.08;53.53
52957;BME280;38819;42.692;23.342;2024-03-22T03:29:20;95418.16;;;6.03;53.67
52957;BME280;38819;42.692;23.342;2024-03-22T03:31:45;95416.81;;;6.00;53.84
52957;BME280;38819;42.692;23.342;2024-03-22T03:34:11;95412.25;;;6.01;53.53
52957;BME280;38819;42.692;23.342;2024-03-22T03:36:36;95416.81;;;6.00;53.73
52957;BME280;38819;42.692;23.342;2024-03-22T03:39:02;95419.66;;;5.88;54.29
52957;BME280;38819;42.692;23.342;2024-03-22T03:41:27;95424.22;;;5.93;54.24
52957;BME280;38819;42.692;23.342;2024-03-22T03:43:52;95429.69;;;5.98;53.74
52957;BME280;38819;42.692;23.342;2024-03-22T03:46:18;95424.22;;;5.93;53.79
52957;BME280;38819;42.692;23.342;2024-03-22T03:48:43;95426.31;;;5.81;54.17
52957;BME280;38819;42.692;23.342;2024-03-22T03:51:08;95429.28;;;5.84;54.54
52957;BME280;38819;42.692;23.342;2024-03-22T03:53:34;95431.69;;;5.86;54.57
52957;BME280;38819;42.692;23.342;2024-03-22T03:55:59;95436.28;;;5.90;53.98
52957;BME280;38819;42.692;23.342;2024-03-22T03:58:24;95438.72;;;5.92;53.96
52957;BME280;38819;42.692;23.342;2024-03-22T04:00:50;95430.75;;;5.97;53.29
52957;BME280;38819;42.692;23.342;2024-03-22T04:03:15;95436.13;;;6.02;53.67
52957;BME280;38819;42.692;23.342;2024-03-22T04:05:41;95431.53;;;5.98;53.79
52957;BME280;38819;42.692;23.342;2024-03-22T04:08:06;95434.81;;;6.05;53.92
52957;BME280;38819;42.692;23.342;2024-03-22T04:10:31;95445.25;;;6.06;54.10
52957;BME280;38819;42.692;23.342;2024-03-22T04:12:57;95444.25;;;6.12;53.90
52957;BME280;38819;42.692;23.342;2024-03-22T04:15:23;95445.88;;;6.14;53.70
52957;BME280;38819;42.692;23.342;2024-03-22T04:17:48;95447.22;;;6.16;53.57
52957;BME280;38819;42.692;23.342;2024-03-22T04:20:14;95440.75;;;6.12;53.72
52957;BME280;38819;42.692;23.342;2024-03-22T04:22:39;95445.03;;;6.13;53.95
52957;BME280;38819;42.692;23.342;2024-03-22T04:25:05;95450.09;;;6.04;54.73
52957;BME280;38819;42.692;23.342;2024-03-22T04:27:30;95456.50;;;5.98;54.48
52957;BME280;38819;42.692;23.342;2024-03-22T04:29:56;95448.66;;;5.91;54.39
52957;BME280;38819;42.692;23.342;2024-03-22T04:32:21;95456.34;;;5.83;54.78
52957;BME280;38819;42.692;23.342;2024-03-22T04:34:46;95457.72;;;5.85;55.33
52957;BME280;38819;42.692;23.342;2024-03-22T04:37:12;95470.59;;;5.88;54.70
52957;BME280;38819;42.692;23.342;2024-03-22T04:39:40;95468.97;;;5.87;53.87
52957;BME280;38819;42.692;23.342;2024-03-22T04:42:05;95469.25;;;5.91;53.54
52957;BME280;38819;42.692;23.342;2024-03-22T04:44:31;95464.78;;;5.97;53.89
52957;BME280;38819;42.692;23.342;2024-03-22T04:46:56;95468.69;;;5.84;54.91
52957;BME280;38819;42.692;23.342;2024-03-22T04:49:21;95474.13;;;5.94;54.80
52957;BME280;38819;42.692;23.342;2024-03-22T04:51:47;95472.78;;;5.91;55.28
52957;BME280;38819;42.692;23.342;2024-03-22T04:54:12;95471.94;;;5.91;54.72
52957;BME280;38819;42.692;23.342;2024-03-22T04:56:39;95474.19;;;5.99;54.89
52957;BME280;38819;42.692;23.342;2024-03-22T04:59:05;95471.69;;;5.92;55.20
52957;BME280;38819;42.692;23.342;2024-03-22T05:01:30;95478.44;;;5.95;55.30
52957;BME280;38819;42.692;23.342;2024-03-22T05:03:56;95477.94;;;5.98;55.19
52957;BME280;38819;42.692;23.342;2024-03-22T05:06:21;95488.56;;;5.93;55.30
52957;BME280;38819;42.692;23.342;2024-03-22T05:08:46;95477.59;;;5.94;55.53
52957;BME280;38819;42.692;23.342;2024-03-22T05:11:12;95484.38;;;5.97;55.38
52957;BME280;38819;42.692;23.342;2024-03-22T05:13:37;95487.13;;;6.07;55.16
52957;BME280;38819;42.692;23.342;2024-03-22T05:16:05;95484.41;;;6.02;55.35
52957;BME280;38819;42.692;23.342;2024-03-22T05:18:30;95483.09;;;6.05;55.08
52957;BME280;38819;42.692;23.342;2024-03-22T05:20:55;95485.22;;;6.08;54.93
52957;BME280;38819;42.692;23.342;2024-03-22T05:23:21;95487.44;;;6.16;54.75
52957;BME280;38819;42.692;23.342;2024-03-22T05:25:46;95492.06;;;6.26;54.66
52957;BME280;38819;42.692;23.342;2024-03-22T05:28:12;95493.44;;;6.28;54.63
52957;BME280;38819;42.692;23.342;2024-03-22T05:30:37;95501.81;;;6.37;54.20
52957;BME280;38819;42.692;23.342;2024-03-22T05:33:02;95503.72;;;6.42;54.03
52957;BME280;38819;42.692;23.342;2024-03-22T05:35:28;95507.22;;;6.42;54.13
52957;BME280;38819;42.692;23.342;2024-03-22T05:37:53;95500.31;;;6.52;53.41
52957;BME280;38819;42.692;23.342;2024-03-22T05:40:18;95506.75;;;6.56;53.23
52957;BME280;38819;42.692;23.342;2024-03-22T05:42:44;95505.72;;;6.62;53.01
52957;BME280;38819;42.692;23.342;2024-03-22T05:45:09;95499.28;;;6.68;52.48
52957;BME280;38819;42.692;23.342;2024-03-22T05:47:35;95507.72;;;6.87;52.19
52957;BME280;38819;42.692;23.342;2024-03-22T05:50:02;95511.47;;;6.86;51.79
52957;BME280;38819;42.692;23.342;2024-03-22T05:52:27;95514.19;;;6.91;51.54
52957;BME280;38819;42.692;23.342;2024-03-22T05:54:53;95516.88;;;6.96;51.00
52957;BME280;38819;42.692;23.342;2024-03-22T05:57:18;95514.22;;;7.01;51.06
52957;BME280;38819;42.692;23.342;2024-03-22T05:59:43;95522.06;;;7.13;51.06
52957;BME280;38819;42.692;23.342;2024-03-22T06:02:09;95519.09;;;7.15;51.26
52957;BME280;38819;42.692;23.342;2024-03-22T06:04:34;95517.25;;;7.20;51.29
52957;BME280;38819;42.692;23.342;2024-03-22T06:07:00;95512.94;;;7.19;51.24
52957;BME280;38819;42.692;23.342;2024-03-22T06:09:28;95519.16;;;7.25;51.42
52957;BME280;38819;42.692;23.342;2024-03-22T06:12:05;95518.09;;;7.31;51.30
52957;BME280;38819;42.692;23.342;2024-03-22T06:14:31;95517.56;;;7.34;50.72
52957;BME280;38819;42.692;23.342;2024-03-22T06:16:56;95516.78;;;7.39;50.82
52957;BME280;38819;42.692;23.342;2024-03-22T06:19:22;95513.84;;;7.46;50.56
52957;BME280;38819;42.692;23.342;2024-03-22T06:21:48;95511.94;;;7.46;50.52
52957;BME280;38819;42.692;23.342;2024-03-22T06:24:14;95514.38;;;7.53;49.94
52957;BME280;38819;42.692;23.342;2024-03-22T06:26:39;95511.69;;;7.58;50.39
52957;BME280;38819;42.692;23.342;2024-03-22T06:29:05;95515.50;;;7.57;50.20
52957;BME280;38819;42.692;23.342;2024-03-22T06:31:30;95520.59;;;7.64;50.45
52957;BME280;38819;42.692;23.342;2024-03-22T06:33:56;95517.41;;;7.77;50.34
52957;BME280;38819;42.692;23.342;2024-03-22T06:36:27;95516.56;;;7.76;50.31
52957;BME280;38819;42.692;23.342;2024-03-22T06:38:53;95520.91;;;7.83;50.08
52957;BME280;38819;42.692;23.342;2024-03-22T06:41:18;95526.81;;;7.90;49.99
52957;BME280;38819;42.692;23.342;2024-03-22T06:43:43;95512.28;;;7.81;49.72
52957;BME280;38819;42.692;23.342;2024-03-22T06:46:09;95520.38;;;7.91;49.22
52957;BME280;38819;42.692;23.342;2024-03-22T06:48:34;95530.06;;;7.97;49.65
52957;BME280;38819;42.692;23.342;2024-03-22T06:50:59;95530.06;;;8.02;49.74
52957;BME280;38819;42.692;23.342;2024-03-22T06:53:25;95536.78;;;8.00;49.75
52957;BME280;38819;42.692;23.342;2024-03-22T06:55:52;95540.81;;;8.07;49.74
52957;BME280;38819;42.692;23.342;2024-03-22T06:58:17;95538.94;;;8.08;49.31
52957;BME280;38819;42.692;23.342;2024-03-22T07:00:43;95539.47;;;8.15;49.23
52957;BME280;38819;42.692;23.342;2024-03-22T07:03:08;95535.97;;;8.20;49.39
52957;BME280;38819;42.692;23.342;2024-03-22T07:05:33;95542.44;;;8.29;49.20
52957;BME280;38819;42.692;23.342;2024-03-22T07:07:59;95537.59;;;8.15;49.11
52957;BME280;38819;42.692;23.342;2024-03-22T07:10:24;95548.63;;;8.19;49.02
52957;BME280;38819;42.692;23.342;2024-03-22T07:12:54;95535.19;;;8.14;48.99
52957;BME280;38819;42.692;23.342;2024-03-22T07:15:21;95546.47;;;8.16;49.25
52957;BME280;38819;42.692;23.342;2024-03-22T07:17:47;95551.31;;;8.24;49.04
52957;BME280;38819;42.692;23.342;2024-03-22T07:20:12;95546.72;;;8.30;49.13
52957;BME280;38819;42.692;23.342;2024-03-22T07:22:37;95542.16;;;8.41;49.15
52957;BME280;38819;42.692;23.342;2024-03-22T07:25:03;95544.63;;;8.47;48.89
52957;BME280;38819;42.692;23.342;2024-03-22T07:27:29;95546.47;;;8.62;48.36
52957;BME280;38819;42.692;23.342;2024-03-22T07:29:55;95537.28;;;8.68;48.41
52957;BME280;38819;42.692;23.342;2024-03-22T07:32:20;95537.56;;;8.67;49.13
52957;BME280;38819;42.692;23.342;2024-03-22T07:34:46;95535.69;;;8.73;47.93
52957;BME280;38819;42.692;23.342;2024-03-22T07:37:11;95545.91;;;8.86;47.33
52957;BME280;38819;42.692;23.342;2024-03-22T07:39:37;95536.72;;;8.87;47.41
52957;BME280;38819;42.692;23.342;2024-03-22T07:42:02;95546.44;;;8.83;47.46
52957;BME280;38819;42.692;23.342;2024-03-22T07:44:28;95542.97;;;8.77;47.70
52957;BME280;38819;42.692;23.342;2024-03-22T07:46:54;95537.28;;;8.89;47.23
52957;BME280;38819;42.692;23.342;2024-03-22T07:49:20;95536.44;;;8.99;47.46
52957;BME280;38819;42.692;23.342;2024-03-22T07:51:45;95538.28;;;9.08;47.03
52957;BME280;38819;42.692;23.342;2024-03-22T07:54:11;95535.03;;;9.12;46.91
52957;BME280;38819;42.692;23.342;2024-03-22T07:56:36;95532.06;;;9.13;46.49
52957;BME280;38819;42.692;23.342;2024-03-22T07:59:01;95537.94;;;9.20;46.54
52957;BME280;38819;42.692;23.342;2024-03-22T08:01:27;95537.66;;;9.32;46.21
52957;BME280;38819;42.692;23.342;2024-03-22T08:03:52;95547.06;;;9.35;45.87
52957;BME280;38819;42.692;23.342;2024-03-22T08:06:18;95540.38;;;9.32;45.68
52957;BME280;38819;42.692;23.342;2024-03-22T08:08:44;95544.94;;;9.32;45.87
52957;BME280;38819;42.692;23.342;2024-03-22T08:11:09;95540.63;;;9.36;45.66
52957;BME280;38819;42.692;23.342;2024-03-22T08:13:35;95541.38;;;9.41;45.42
52957;BME280;38819;42.692;23.342;2024-03-22T08:16:00;95538.09;;;9.55;45.22
52957;BME280;38819;42.692;23.342;2024-03-22T08:18:26;95532.88;;;9.69;45.00
52957;BME280;38819;42.692;23.342;2024-03-22T08:20:51;95528.16;;;9.90;45.41
52957;BME280;38819;42.692;23.342;2024-03-22T08:23:16;95535.13;;;10.01;44.79
52957;BME280;38819;42.692;23.342;2024-03-22T08:25:45;95529.34;;;10.13;44.21
52957;BME280;38819;42.692;23.342;2024-03-22T08:28:10;95525.50;;;10.24;43.67
52957;BME280;38819;42.692;23.342;2024-03-22T08:30:37;95525.38;;;10.40;43.55
52957;BME280;38819;42.692;23.342;2024-03-22T08:33:03;95527.75;;;10.46;44.04
52957;BME280;38819;42.692;23.342;2024-03-22T08:35:29;95526.09;;;10.50;43.67
52957;BME280;38819;42.692;23.342;2024-03-22T08:37:54;95518.19;;;10.59;43.84
52957;BME280;38819;42.692;23.342;2024-03-22T08:40:20;95528.38;;;10.67;43.77
52957;BME280;38819;42.692;23.342;2024-03-22T08:42:45;95519.75;;;10.65;43.19
52957;BME280;38819;42.692;23.342;2024-03-22T08:45:10;95523.97;;;10.77;42.55
52957;BME280;38819;42.692;23.342;2024-03-22T08:47:36;95526.16;;;10.74;42.67
52957;BME280;38819;42.692;23.342;2024-03-22T08:50:01;95530.09;;;10.58;42.66
52957;BME280;38819;42.692;23.342;2024-03-22T08:52:26;95532.94;;;10.43;42.69
52957;BME280;38819;42.692;23.342;2024-03-22T08:54:52;95534.00;;;10.42;43.23
52957;BME280;38819;42.692;23.342;2024-03-22T08:57:18;95528.19;;;10.59;42.94
52957;BME280;38819;42.692;23.342;2024-03-22T08:59:44;95527.66;;;10.56;42.10
52957;BME280;38819;42.692;23.342;2024-03-22T09:02:10;95528.41;;;10.62;41.98
52957;BME280;38819;42.692;23.342;2024-03-22T09:04:36;95522.84;;;10.53;42.60
52957;BME280;38819;42.692;23.342;2024-03-22T09:07:02;95527.16;;;10.54;42.75
52957;BME280;38819;42.692;23.342;2024-03-22T09:09:27;95531.94;;;10.28;42.94
52957;BME280;38819;42.692;23.342;2024-03-22T09:11:52;95522.69;;;10.40;42.52
52957;BME280;38819;42.692;23.342;2024-03-22T09:14:18;95513.88;;;10.58;42.58
52957;BME280;38819;42.692;23.342;2024-03-22T09:16:43;95515.13;;;10.71;42.67
52957;BME280;38819;42.692;23.342;2024-03-22T09:19:09;95510.69;;;10.80;42.45
52957;BME280;38819;42.692;23.342;2024-03-22T09:21:36;95510.22;;;10.97;41.93
52957;BME280;38819;42.692;23.342;2024-03-22T09:24:01;95514.09;;;10.91;42.25
52957;BME280;38819;42.692;23.342;2024-03-22T09:26:28;95502.84;;;10.79;41.89
52957;BME280;38819;42.692;23.342;2024-03-22T09:28:54;95510.28;;;10.68;41.37
52957;BME280;38819;42.692;23.342;2024-03-22T09:31:19;95501.88;;;10.69;41.70
52957;BME280;38819;42.692;23.342;2024-03-22T09:33:45;95495.16;;;10.67;41.70
52957;BME280;38819;42.692;23.342;2024-03-22T09:36:10;95486.38;;;10.80;41.90
52957;BME280;38819;42.692;23.342;2024-03-22T09:38:35;95494.34;;;10.90;41.80
52957;BME280;38819;42.692;23.342;2024-03-22T09:41:01;95495.75;;;10.88;41.70
52957;BME280;38819;42.692;23.342;2024-03-22T09:43:30;95493.28;;;10.91;41.73
52957;BME280;38819;42.692;23.342;2024-03-22T09:45:58;95493.78;;;10.93;41.44
52957;BME280;38819;42.692;23.342;2024-03-22T09:48:24;95488.53;;;11.02;41.45
52957;BME280;38819;42.692;23.342;2024-03-22T09:50:51;95491.03;;;10.99;41.54
52957;BME280;38819;42.692;23.342;2024-03-22T09:53:21;95498.34;;;10.98;41.16
52957;BME280;38819;42.692;23.342;2024-03-22T09:55:51;95489.09;;;11.04;41.27
52957;BME280;38819;42.692;23.342;2024-03-22T09:58:17;95503.97;;;11.02;41.25
52957;BME280;38819;42.692;23.342;2024-03-22T10:00:43;95506.84;;;10.86;41.65
52957;BME280;38819;42.692;23.342;2024-03-22T10:03:10;95487.00;;;10.96;41.72
52957;BME280;38819;42.692;23.342;2024-03-22T10:05:36;95484.91;;;11.12;41.58
52957;BME280;38819;42.692;23.342;2024-03-22T10:08:03;95479.03;;;11.29;41.53
52957;BME280;38819;42.692;23.342;2024-03-22T10:10:30;95481.94;;;11.32;41.00
52957;BME280;38819;42.692;23.342;2024-03-22T10:12:56;95474.75;;;11.47;40.95
52957;BME280;38819;42.692;23.342;2024-03-22T10:15:23;95471.38;;;11.55;40.63
52957;BME280;38819;42.692;23.342;2024-03-22T10:17:49;95475.56;;;11.66;40.33
52957;BME280;38819;42.692;23.342;2024-03-22T10:20:14;95476.63;;;11.65;39.93
52957;BME280;38819;42.692;23.342;2024-03-22T10:22:48;95473.06;;;11.70;39.67
52957;BME280;38819;42.692;23.342;2024-03-22T10:25:14;95470.66;;;11.68;39.72
52957;BME280;38819;42.692;23.342;2024-03-22T10:27:40;95466.03;;;11.69;39.67
52957;BME280;38819;42.692;23.342;2024-03-22T10:30:08;95456.69;;;11.61;39.91
52957;BME280;38819;42.692;23.342;2024-03-22T10:32:35;95458.44;;;11.71;39.41
52957;BME280;38819;42.692;23.342;2024-03-22T10:35:02;95450.00;;;11.73;39.56
52957;BME280;38819;42.692;23.342;2024-03-22T10:37:32;95457.63;;;11.71;38.77
52957;BME280;38819;42.692;23.342;2024-03-22T10:39:58;95456.16;;;11.59;39.05
52957;BME280;38819;42.692;23.342;2024-03-22T10:42:26;95451.22;;;11.66;39.02
52957;BME280;38819;42.692;23.342;2024-03-22T10:44:51;95440.38;;;11.66;39.49
52957;BME280;38819;42.692;23.342;2024-03-22T10:47:18;95447.25;;;11.78;39.62
52957;BME280;38819;42.692;23.342;2024-03-22T10:49:44;95438.31;;;11.77;38.91
52957;BME280;38819;42.692;23.342;2024-03-22T10:52:13;95432.44;;;11.89;39.00
52957;BME280;38819;42.692;23.342;2024-03-22T10:54:40;95435.44;;;11.87;39.36
52957;BME280;38819;42.692;23.342;2024-03-22T10:57:07;95430.72;;;11.98;39.93
52957;BME280;38819;42.692;23.342;2024-03-22T10:59:36;95417.41;;;12.16;40.23
52957;BME280;38819;42.692;23.342;2024-03-22T11:02:03;95423.09;;;12.33;39.73
52957;BME280;38819;42.692;23.342;2024-03-22T11:04:30;95417.69;;;12.47;38.60
52957;BME280;38819;42.692;23.342;2024-03-22T11:06:57;95417.56;;;12.52;38.60
52957;BME280;38819;42.692;23.342;2024-03-22T11:09:26;95407.88;;;12.51;38.15
52957;BME280;38819;42.692;23.342;2024-03-22T11:11:52;95405.94;;;12.66;37.97
52957;BME280;38819;42.692;23.342;2024-03-22T11:14:18;95406.25;;;12.64;38.23
52957;BME280;38819;42.692;23.342;2024-03-22T11:16:45;95403.97;;;12.71;37.53
52957;BME280;38819;42.692;23.342;2024-03-22T11:19:11;95395.72;;;12.76;38.50
52957;BME280;38819;42.692;23.342;2024-03-22T11:21:37;95394.19;;;12.84;38.16
52957;BME280;38819;42.692;23.342;2024-03-22T11:24:03;95400.72;;;12.97;37.95
52957;BME280;38819;42.692;23.342;2024-03-22T11:26:28;95402.84;;;13.00;37.76
52957;BME280;38819;42.692;23.342;2024-03-22T11:28:54;95404.41;;;13.01;36.52
52957;BME280;38819;42.692;23.342;2024-03-22T11:31:19;95395.97;;;13.03;37.14
52957;BME280;38819;42.692;23.342;2024-03-22T11:33:47;95389.84;;;13.11;36.13
52957;BME280;38819;42.692;23.342;2024-03-22T11:36:13;95396.34;;;13.24;36.04
52957;BME280;38819;42.692;23.342;2024-03-22T11:38:39;95386.06;;;12.98;35.82
52957;BME280;38819;42.692;23.342;2024-03-22T11:41:04;95388.47;;;12.86;36.00
52957;BME280;38819;42.692;23.342;2024-03-22T11:43:31;95385.75;;;12.86;36.44
52957;BME280;38819;42.692;23.342;2024-03-22T11:45:57;95378.84;;;12.93;36.45
52957;BME280;38819;42.692;23.342;2024-03-22T11:48:22;95383.13;;;13.08;36.78
52957;BME280;38819;42.692;23.342;2024-03-22T11:50:48;95369.06;;;13.20;37.08
52957;BME280;38819;42.692;23.342;2024-03-22T11:53:16;95366.72;;;13.27;36.24
52957;BME280;38819;42.692;23.342;2024-03-22T11:55:42;95377.66;;;13.36;36.62
52957;BME280;38819;42.692;23.342;2024-03-22T11:58:09;95364.69;;;13.47;35.40
52957;BME280;38819;42.692;23.342;2024-03-22T12:00:35;95363.13;;;13.55;35.15
52957;BME280;38819;42.692;23.342;2024-03-22T12:03:04;95357.69;;;13.55;36.68
52957;BME280;38819;42.692;23.342;2024-03-22T12:05:29;95355.53;;;13.43;35.42
52957;BME280;38819;42.692;23.342;2024-03-22T12:07:55;95350.53;;;13.36;35.46
52957;BME280;38819;42.692;23.342;2024-03-22T12:10:21;95344.81;;;13.38;35.34
52957;BME280;38819;42.692;23.342;2024-03-22T12:12:46;95345.50;;;13.29;35.60
52957;BME280;38819;42.692;23.342;2024-03-22T12:15:12;95342.53;;;13.17;34.41
52957;BME280;38819;42.692;23.342;2024-03-22T12:17:37;95347.53;;;13.24;34.31
52957;BME280;38819;42.692;23.342;2024-03-22T12:20:08;95344.81;;;13.38;33.79
52957;BME280;38819;42.692;23.342;2024-03-22T12:22:34;95329.00;;;13.40;34.06
52957;BME280;38819;42.692;23.342;2024-03-22T12:24:59;95345.06;;;13.50;34.37
52957;BME280;38819;42.692;23.342;2024-03-22T12:27:25;95336.38;;;13.62;34.54
52957;BME280;38819;42.692;23.342;2024-03-22T12:29:50;95324.28;;;13.68;34.73
52957;BME280;38819;42.692;23.342;2024-03-22T12:32:16;95323.41;;;13.81;34.55
52957;BME280;38819;42.692;23.342;2024-03-22T12:34:41;95314.59;;;13.76;34.34
52957;BME280;38819;42.692;23.342;2024-03-22T12:37:06;95322.94;;;13.88;35.02
52957;BME280;38819;42.692;23.342;2024-03-22T12:39:32;95317.09;;;13.95;34.12
52957;BME280;38819;42.692;23.342;2024-03-22T12:41:57;95310.28;;;14.06;34.02
52957;BME280;38819;42.692;23.342;2024-03-22T12:44:23;95319.66;;;14.00;33.50
52957;BME280;38819;42.692;23.342;2024-03-22T12:46:48;95320.97;;;14.02;33.63
52957;BME280;38819;42.692;23.342;2024-03-22T12:49:16;95319.19;;;13.98;33.90